FAPN

Pilanesberg International Airport

Pilanesberg, South Africa
METAR FAPN 222000Z AUTO 00000KT //// // ////// 16/11 Q1020
Observed Flight Rules
Apr-22 @ 20:00 UTC (2 hours ago)
Temperatures Readings
Current 16°C / 61°F
Dewpoint 11°C / 52°F
Humidity 72%
Altimeter 30.12" Hg
Pressure 1020 hPa
Elevation 1039
METAR FAPN 222000Z AUTO 00000KT //// // ////// 16/11 Q1020
Observed Flight Rules
Apr-22 @ 20:00 UTC
(2 hours ago)
Temperature Dewpoint
16°C / 61°F 11°C / 52°F
Humidity Altimeter Pressure
72% 30.12" Hg 1020 hPa